createdAt,value
2023-04-10T00:04:56.247Z,3.40
2023-04-10T00:14:58.811Z,3.27
2023-04-10T00:25:01.198Z,3.53
2023-04-10T00:35:03.714Z,3.97
2023-04-10T00:45:07.168Z,4.27
2023-04-10T00:55:11.427Z,3.67
2023-04-10T01:05:14.612Z,3.93
2023-04-10T01:15:20.466Z,4.10
2023-04-10T01:25:36.401Z,3.70
2023-04-10T01:35:41.545Z,4.07
2023-04-10T01:55:48.563Z,3.97
2023-04-10T02:06:16.392Z,3.87
2023-04-10T02:16:22.837Z,4.43
2023-04-10T02:26:25.657Z,4.80
2023-04-10T02:36:27.976Z,4.50
2023-04-10T02:46:30.267Z,4.17
2023-04-10T02:56:35.264Z,3.97
2023-04-10T03:06:37.715Z,4.03
2023-04-10T03:16:40.186Z,3.97
2023-04-10T03:26:42.666Z,4.80
2023-04-10T03:36:45.068Z,4.30
2023-04-10T03:46:47.325Z,5.37
2023-04-10T03:56:49.665Z,5.03
2023-04-10T04:06:52.135Z,4.83
2023-04-10T04:16:54.434Z,4.27
2023-04-10T04:26:59.495Z,4.40
2023-04-10T04:37:03.335Z,4.28
2023-04-10T04:47:05.649Z,4.53
2023-04-10T04:57:08.120Z,5.57
2023-04-10T05:07:10.690Z,5.53
2023-04-10T05:17:13.043Z,5.77
2023-04-10T05:27:15.355Z,5.57
2023-04-10T05:37:17.771Z,6.73
2023-04-10T05:47:19.990Z,6.23
2023-04-10T05:57:22.369Z,4.67
2023-04-10T06:07:24.842Z,5.00
2023-04-10T06:17:28.658Z,5.27
2023-04-10T06:27:31.439Z,5.80
2023-04-10T06:37:33.790Z,5.20
2023-04-10T06:47:36.468Z,5.60
2023-04-10T06:57:40.001Z,5.47
2023-04-10T07:07:42.985Z,5.83
2023-04-10T07:17:45.854Z,5.70
2023-04-10T07:27:48.618Z,5.93
2023-04-10T07:37:52.962Z,5.50
2023-04-10T07:49:07.396Z,5.07
2023-04-10T07:59:13.007Z,5.07
2023-04-10T08:09:16.079Z,4.67
2023-04-10T08:19:18.512Z,4.80
2023-04-10T08:29:20.840Z,4.83
2023-04-10T08:39:23.498Z,4.83
2023-04-10T08:49:54.265Z,4.47
2023-04-10T08:59:59.497Z,4.35
2023-04-10T09:10:03.058Z,4.07
2023-04-10T09:20:22.683Z,3.97
2023-04-10T09:30:37.722Z,4.62
2023-04-10T09:40:40.395Z,3.67
2023-04-10T09:50:42.969Z,4.40
2023-04-10T10:00:49.843Z,3.80
2023-04-10T10:10:54.815Z,4.25
2023-04-10T10:20:58.134Z,3.70
2023-04-10T10:31:03.093Z,3.90
2023-04-10T10:41:13.394Z,3.25
2023-04-10T10:51:15.821Z,2.92
2023-04-10T11:01:20.543Z,2.55
2023-04-10T11:11:27.691Z,2.40
2023-04-10T11:21:30.644Z,2.30
2023-04-10T11:31:34.771Z,2.30
2023-04-10T11:41:39.595Z,2.30
2023-04-10T11:51:46.952Z,2.10
2023-04-10T12:01:51.171Z,2.40
2023-04-10T12:11:57.093Z,2.47
2023-04-10T12:22:00.594Z,1.75
2023-04-10T12:32:10.044Z,2.22
2023-04-10T12:42:23.454Z,2.33
